createdAt,value
2023-04-29T00:03:45.821Z,8.30
2023-04-29T00:09:39.287Z,8.60
2023-04-29T00:15:34.043Z,9.90
2023-04-29T00:21:27.550Z,8.70
2023-04-29T00:27:20.980Z,8.43
2023-04-29T00:33:15.812Z,8.33
2023-04-29T00:39:09.276Z,10.47
2023-04-29T00:45:02.848Z,9.50
2023-04-29T00:50:58.058Z,9.10
2023-04-29T00:56:52.747Z,8.83
2023-04-29T01:02:47.591Z,9.77
2023-04-29T01:08:50.180Z,9.10
2023-04-29T01:14:47.977Z,10.30
2023-04-29T01:20:42.265Z,10.03
2023-04-29T01:26:37.036Z,9.20
2023-04-29T01:32:53.024Z,9.87
2023-04-29T01:38:54.315Z,10.47
2023-04-29T01:44:52.344Z,10.90
2023-04-29T01:50:48.252Z,12.10
2023-04-29T01:56:43.380Z,11.97
2023-04-29T02:02:51.138Z,13.43
2023-04-29T02:08:59.494Z,12.70
2023-04-29T02:14:54.453Z,12.93
2023-04-29T02:20:51.132Z,13.80
2023-04-29T02:26:44.391Z,13.10
2023-04-29T02:32:39.491Z,12.87
2023-04-29T02:38:34.202Z,12.60
2023-04-29T02:44:27.425Z,13.33
2023-04-29T02:50:20.599Z,12.90
2023-04-29T02:56:15.373Z,13.37
2023-04-29T03:02:08.673Z,12.50
2023-04-29T03:08:02.130Z,12.60
2023-04-29T03:13:56.933Z,11.50
2023-04-29T03:19:51.619Z,12.20
2023-04-29T03:25:45.050Z,12.80
2023-04-29T03:31:40.209Z,12.93
2023-04-29T03:37:33.499Z,14.60
2023-04-29T03:43:44.237Z,15.03
2023-04-29T03:49:39.073Z,14.40
2023-04-29T03:55:32.909Z,15.93
2023-04-29T04:01:26.286Z,14.43
2023-04-29T04:07:21.023Z,15.07
2023-04-29T04:13:50.003Z,15.07
2023-04-29T04:19:44.047Z,15.67
2023-04-29T04:25:38.891Z,14.60
2023-04-29T04:31:50.414Z,14.57
2023-04-29T04:37:45.449Z,15.07
2023-04-29T04:43:41.105Z,14.43
2023-04-29T04:49:41.906Z,14.00
2023-04-29T04:55:35.185Z,15.80
2023-04-29T05:01:29.801Z,15.03
2023-04-29T05:07:24.983Z,15.30
2023-04-29T05:13:30.411Z,15.30
2023-04-29T05:19:25.089Z,15.07
2023-04-29T05:25:18.612Z,14.00
2023-04-29T05:31:11.911Z,13.40
2023-04-29T05:37:06.425Z,13.47
2023-04-29T05:43:07.942Z,12.60
2023-04-29T05:49:01.036Z,12.30
2023-04-29T05:54:55.709Z,12.20
2023-04-29T06:00:49.385Z,11.73
2023-04-29T06:06:47.780Z,11.00
2023-04-29T06:12:51.471Z,11.00
2023-04-29T06:18:44.552Z,9.93
2023-04-29T06:24:39.968Z,10.87
2023-04-29T06:30:36.503Z,9.17
2023-04-29T06:36:29.582Z,9.77
2023-04-29T06:42:41.104Z,8.03
2023-04-29T06:48:54.251Z,7.77
2023-04-29T06:54:47.821Z,9.00
2023-04-29T07:00:41.216Z,8.20
2023-04-29T07:06:35.634Z,8.60
2023-04-29T07:12:28.721Z,6.73
2023-04-29T07:18:21.735Z,7.87
2023-04-29T07:24:16.153Z,8.77
2023-04-29T07:30:12.544Z,7.73
2023-04-29T07:36:07.343Z,8.80
2023-04-29T07:42:03.082Z,7.30
2023-04-29T07:47:57.696Z,6.80
2023-04-29T07:53:51.178Z,7.40
2023-04-29T07:59:46.052Z,5.83
2023-04-29T08:05:39.696Z,6.43
2023-04-29T08:11:33.052Z,7.30
2023-04-29T08:17:27.853Z,7.47
2023-04-29T08:23:21.506Z,6.70
2023-04-29T08:29:15.030Z,7.23
2023-04-29T08:35:11.005Z,6.60
2023-04-29T08:41:04.519Z,6.10
2023-04-29T08:47:00.832Z,6.27
2023-04-29T08:52:56.160Z,6.77
2023-04-29T08:58:54.929Z,6.17
2023-04-29T09:04:54.436Z,6.33
2023-04-29T09:10:49.827Z,6.20
2023-04-29T09:16:43.336Z,5.67
2023-04-29T09:22:49.609Z,5.97
2023-04-29T09:28:45.671Z,6.37
2023-04-29T09:34:41.417Z,5.90
2023-04-29T09:40:46.582Z,5.57
2023-04-29T09:46:57.636Z,6.40
2023-04-29T09:52:51.420Z,5.87
2023-04-29T09:58:45.124Z,6.63
2023-04-29T10:04:42.290Z,6.27
2023-04-29T10:10:35.812Z,7.10
2023-04-29T10:16:30.795Z,7.13
2023-04-29T10:22:35.132Z,5.80
2023-04-29T10:28:32.565Z,6.20
2023-04-29T10:34:26.345Z,6.07
2023-04-29T10:40:26.170Z,5.97
2023-04-29T10:46:21.586Z,5.70
2023-04-29T10:52:18.163Z,4.53
2023-04-29T10:58:36.325Z,4.00
2023-04-29T11:04:32.663Z,4.30
2023-04-29T11:10:37.510Z,4.40
2023-04-29T11:16:32.557Z,5.07
2023-04-29T11:22:30.298Z,5.07
2023-04-29T11:28:25.038Z,5.77
2023-04-29T11:34:26.492Z,4.97
2023-04-29T11:40:19.439Z,6.00
2023-04-29T11:46:13.961Z,5.90
2023-04-29T11:52:09.819Z,6.17
2023-04-29T11:58:02.806Z,5.60
2023-04-29T12:04:00.998Z,6.07
2023-04-29T12:09:56.384Z,5.27
2023-04-29T12:15:51.155Z,5.30
2023-04-29T12:21:52.517Z,6.07
2023-04-29T12:27:46.923Z,5.27
2023-04-29T12:33:44.581Z,5.90
2023-04-29T12:39:38.051Z,5.83
2023-04-29T12:45:34.731Z,4.60
2023-04-29T12:51:28.097Z,4.97
2023-04-29T12:57:22.620Z,4.60
2023-04-29T13:03:19.182Z,5.00
2023-04-29T13:09:18.667Z,4.20
2023-04-29T13:15:12.510Z,3.57
2023-04-29T13:21:07.374Z,3.43
2023-04-29T13:27:00.786Z,3.70
2023-04-29T13:32:55.418Z,3.97
2023-04-29T13:38:55.381Z,4.53
2023-04-29T13:44:53.161Z,4.97
2023-04-29T13:57:30.108Z,4.40
2023-04-29T14:08:54.092Z,3.33
2023-04-29T14:14:48.897Z,2.27
2023-04-29T14:20:42.352Z,2.73
2023-04-29T14:26:36.698Z,1.67
2023-04-29T14:32:31.596Z,1.90
2023-04-29T14:38:25.048Z,2.13
2023-04-29T14:44:18.622Z,2.00
2023-04-29T14:50:13.553Z,2.00
2023-04-29T14:56:07.952Z,1.90
2023-04-29T15:02:00.986Z,2.30
2023-04-29T15:07:55.867Z,1.73
2023-04-29T15:13:49.044Z,1.93
2023-04-29T15:19:42.521Z,1.53
2023-04-29T15:25:38.669Z,2.03
2023-04-29T15:31:31.877Z,2.30
2023-04-29T15:37:25.350Z,1.80
2023-04-29T15:43:19.703Z,1.80
2023-04-29T15:49:13.740Z,2.00
2023-04-29T15:55:07.767Z,2.13
2023-04-29T16:01:02.179Z,1.60
2023-04-29T16:06:55.176Z,1.70
2023-04-29T16:12:48.705Z,1.80
2023-04-29T16:18:43.114Z,1.87
2023-04-29T16:24:36.513Z,1.53
2023-04-29T16:30:29.524Z,2.07
2023-04-29T16:36:24.354Z,2.00
2023-04-29T16:42:19.489Z,2.03
2023-04-29T16:48:12.525Z,2.30
2023-04-29T16:54:08.565Z,2.20
2023-04-29T17:00:02.068Z,2.27
2023-04-29T17:05:55.057Z,2.27
2023-04-29T17:11:50.198Z,2.07
2023-04-29T17:17:43.215Z,2.00
2023-04-29T17:23:37.521Z,2.67
2023-04-29T17:29:32.479Z,4.07
2023-04-29T17:35:25.877Z,2.50
2023-04-29T17:41:18.856Z,3.23
2023-04-29T17:47:13.762Z,2.37
2023-04-29T17:53:06.800Z,2.40
2023-04-29T17:58:59.849Z,3.00
2023-04-29T18:04:54.174Z,2.37
2023-04-29T18:10:47.149Z,2.03
2023-04-29T18:16:40.633Z,2.20
2023-04-29T18:22:35.635Z,2.90
2023-04-29T18:28:29.676Z,2.80
2023-04-29T18:34:22.656Z,2.00
2023-04-29T18:40:17.571Z,1.83
2023-04-29T18:46:10.664Z,2.27
2023-04-29T18:52:04.106Z,2.10
2023-04-29T18:57:58.930Z,2.30
2023-04-29T19:03:52.198Z,2.50
2023-04-29T19:09:45.646Z,2.40
2023-04-29T19:15:40.823Z,2.63
2023-04-29T19:21:34.254Z,2.40
2023-04-29T19:27:27.277Z,2.63
2023-04-29T19:33:22.046Z,2.27
2023-04-29T19:39:16.625Z,2.00
2023-04-29T19:45:12.408Z,2.33
2023-04-29T19:51:08.914Z,1.80
2023-04-29T19:57:02.888Z,1.93
2023-04-29T20:02:56.955Z,1.83
2023-04-29T20:08:52.481Z,2.10
2023-04-29T20:14:45.867Z,1.60
2023-04-29T20:20:39.317Z,1.70
2023-04-29T20:26:33.988Z,2.33
2023-04-29T20:32:27.094Z,2.27
2023-04-29T20:38:21.901Z,2.30
2023-04-29T20:44:17.368Z,2.10
2023-04-29T20:50:12.404Z,2.37
2023-04-29T20:56:06.189Z,2.97
2023-04-29T21:02:01.247Z,2.47
2023-04-29T21:07:54.264Z,2.30
2023-04-29T21:13:50.605Z,2.97
2023-04-29T21:19:45.337Z,2.70
2023-04-29T21:25:38.713Z,2.50
2023-04-29T21:31:32.280Z,2.23
2023-04-29T21:37:27.118Z,2.83
2023-04-29T21:43:20.818Z,3.93
2023-04-29T21:49:14.272Z,2.40
2023-04-29T21:55:09.450Z,2.90
2023-04-29T22:01:05.884Z,3.50
2023-04-29T22:07:00.474Z,2.97
2023-04-29T22:12:54.882Z,3.73
2023-04-29T22:18:48.651Z,2.97
2023-04-29T22:24:42.137Z,2.87
2023-04-29T22:30:37.011Z,3.10
2023-04-29T22:36:31.094Z,3.03
2023-04-29T22:42:24.168Z,2.90
2023-04-29T22:48:19.015Z,3.00
2023-04-29T22:55:20.244Z,3.17
2023-04-29T23:01:13.369Z,3.20
2023-04-29T23:07:06.725Z,3.10
2023-04-29T23:13:01.211Z,3.13
2023-04-29T23:18:54.611Z,2.90
2023-04-29T23:24:47.993Z,2.97
2023-04-29T23:30:42.500Z,3.20
2023-04-29T23:36:36.211Z,3.97
2023-04-29T23:44:21.518Z,4.03
2023-04-29T23:50:14.919Z,3.57
2023-04-29T23:56:08.784Z,3.80
